createdAt,value
2023-02-02T00:02:04.511Z,24.01
2023-02-02T00:04:53.135Z,24.04
2023-02-02T00:07:43.793Z,24.03
2023-02-02T00:10:34.286Z,24.03
2023-02-02T00:13:22.929Z,24.04
2023-02-02T00:16:37.073Z,24.12
2023-02-02T00:19:30.055Z,24.17
2023-02-02T00:22:18.653Z,24.16
2023-02-02T00:25:08.180Z,24.15
2023-02-02T00:27:56.873Z,24.13
2023-02-02T00:30:45.663Z,24.10
2023-02-02T00:33:34.364Z,24.07
2023-02-02T00:36:24.887Z,24.10
2023-02-02T00:39:18.499Z,24.06
2023-02-02T00:42:07.184Z,24.01
2023-02-02T00:45:13.180Z,24.02
2023-02-02T00:48:01.796Z,23.97
2023-02-02T00:50:50.522Z,23.98
2023-02-02T00:53:40.464Z,23.97
2023-02-02T00:56:29.234Z,23.97
2023-02-02T00:59:17.845Z,24.06
2023-02-02T01:02:06.639Z,24.05
2023-02-02T01:04:55.259Z,24.00
2023-02-02T01:07:44.145Z,23.98
2023-02-02T01:10:34.732Z,24.01
2023-02-02T01:13:23.328Z,23.95
2023-02-02T01:16:12.765Z,23.89
2023-02-02T01:19:01.446Z,23.95
2023-02-02T01:21:51.133Z,23.98
2023-02-02T01:24:39.772Z,24.01
2023-02-02T01:27:29.880Z,23.96
2023-02-02T01:30:18.516Z,24.02
2023-02-02T01:33:07.191Z,23.95
2023-02-02T01:35:57.206Z,23.93
2023-02-02T01:38:45.863Z,23.93
2023-02-02T01:41:34.525Z,23.87
2023-02-02T01:45:00.242Z,23.94
2023-02-02T01:47:52.898Z,23.91
2023-02-02T01:50:41.673Z,23.93
2023-02-02T01:53:30.576Z,23.95
2023-02-02T01:56:22.618Z,23.94
2023-02-02T01:59:12.128Z,23.88
2023-02-02T02:02:00.847Z,23.99
2023-02-02T02:04:51.698Z,23.98
2023-02-02T02:07:42.071Z,24.00
2023-02-02T02:10:30.654Z,23.99
2023-02-02T02:13:19.433Z,23.94
2023-02-02T02:16:20.324Z,23.90
2023-02-02T02:19:16.814Z,23.86
2023-02-02T02:22:28.560Z,23.91
2023-02-02T02:25:55.850Z,23.85
2023-02-02T02:29:06.347Z,23.91
2023-02-02T02:32:15.690Z,23.92
2023-02-02T02:35:06.874Z,23.92
2023-02-02T02:38:00.366Z,23.92
2023-02-02T02:40:52.763Z,23.87
2023-02-02T02:43:44.011Z,23.88
2023-02-02T02:46:33.172Z,23.91
2023-02-02T02:49:23.182Z,23.93
2023-02-02T02:52:11.762Z,23.89
2023-02-02T02:55:01.737Z,24.01
2023-02-02T02:58:06.626Z,23.93
2023-02-02T03:01:06.660Z,23.92
2023-02-02T03:04:03.790Z,23.82
2023-02-02T03:06:56.748Z,23.86
2023-02-02T03:09:46.011Z,23.87
2023-02-02T03:12:34.598Z,23.92
2023-02-02T03:15:23.619Z,23.97
2023-02-02T03:18:13.185Z,23.91
2023-02-02T03:21:02.172Z,23.87
2023-02-02T03:23:52.235Z,23.86
2023-02-02T03:26:40.924Z,23.85
2023-02-02T03:29:29.984Z,23.92
2023-02-02T03:32:18.730Z,23.85
2023-02-02T03:35:08.282Z,23.89
2023-02-02T03:37:57.118Z,23.86
2023-02-02T03:40:47.124Z,23.80
2023-02-02T03:43:35.658Z,23.83
2023-02-02T03:46:24.368Z,23.79
2023-02-02T03:49:12.999Z,23.80
2023-02-02T03:52:02.684Z,23.83
2023-02-02T03:54:51.294Z,23.84
2023-02-02T03:57:41.247Z,23.85
2023-02-02T04:00:29.841Z,23.92
2023-02-02T04:03:18.479Z,23.98
2023-02-02T04:06:07.477Z,23.90
2023-02-02T04:08:56.083Z,23.89
2023-02-02T04:11:44.705Z,23.86
2023-02-02T04:14:34.748Z,23.82
2023-02-02T04:17:23.337Z,23.82
2023-02-02T04:20:13.414Z,23.83
2023-02-02T04:23:02.026Z,23.84
2023-02-02T04:25:51.069Z,23.88
2023-02-02T04:28:39.632Z,23.90
2023-02-02T04:31:30.196Z,23.87
2023-02-02T04:34:19.090Z,23.85
2023-02-02T04:37:07.721Z,23.91
2023-02-02T04:39:56.320Z,23.89
2023-02-02T04:42:45.417Z,23.86
2023-02-02T04:45:34.134Z,23.88
2023-02-02T04:48:24.179Z,23.85
2023-02-02T04:51:14.724Z,23.79
2023-02-02T04:54:03.364Z,23.84
2023-02-02T04:56:51.967Z,23.81
2023-02-02T04:59:42.468Z,23.77
2023-02-02T05:02:31.190Z,23.81
2023-02-02T05:05:21.423Z,23.77
2023-02-02T05:08:11.999Z,23.73
2023-02-02T05:11:00.959Z,23.73
2023-02-02T05:13:51.006Z,23.77
2023-02-02T05:16:40.333Z,23.77
2023-02-02T05:19:28.979Z,23.72
2023-02-02T05:22:18.956Z,23.74
2023-02-02T05:25:08.545Z,23.81
2023-02-02T05:27:57.197Z,23.81
2023-02-02T05:30:45.866Z,23.91
2023-02-02T05:33:34.490Z,23.95
2023-02-02T05:36:23.045Z,24.04
2023-02-02T05:39:13.178Z,24.08
2023-02-02T05:42:01.791Z,24.03
2023-02-02T05:44:50.364Z,24.00
2023-02-02T05:47:38.986Z,24.01
2023-02-02T05:50:27.638Z,23.99
2023-02-02T05:53:16.416Z,23.99
2023-02-02T05:56:07.063Z,23.93
2023-02-02T05:58:55.648Z,23.94
2023-02-02T06:01:44.400Z,23.96
2023-02-02T06:04:33.105Z,23.96
2023-02-02T06:07:21.773Z,23.99
2023-02-02T06:10:11.161Z,23.98
2023-02-02T06:13:01.265Z,24.06
2023-02-02T06:15:49.972Z,23.96
2023-02-02T06:18:39.116Z,23.85
2023-02-02T06:21:31.050Z,23.86
2023-02-02T06:24:19.830Z,23.95
2023-02-02T06:27:09.030Z,23.94
2023-02-02T06:29:59.054Z,23.91
2023-02-02T06:32:47.616Z,23.95
2023-02-02T06:35:37.407Z,23.94
2023-02-02T06:38:26.125Z,23.90
2023-02-02T06:41:14.718Z,23.92
2023-02-02T06:44:10.598Z,23.95
2023-02-02T06:47:03.886Z,23.96
2023-02-02T06:49:52.942Z,23.95
2023-02-02T06:52:41.506Z,24.09
2023-02-02T06:55:30.106Z,24.08
2023-02-02T06:58:18.661Z,24.20
2023-02-02T07:01:08.741Z,24.08
2023-02-02T07:03:58.945Z,23.97
2023-02-02T07:06:47.911Z,24.10
2023-02-02T07:09:36.998Z,24.11
2023-02-02T07:12:26.841Z,24.23
2023-02-02T07:15:15.480Z,24.29
2023-02-02T07:18:04.062Z,24.13
2023-02-02T07:20:54.083Z,24.19
2023-02-02T07:23:42.676Z,24.12
2023-02-02T07:26:31.358Z,24.18
2023-02-02T07:29:20.026Z,24.25
2023-02-02T07:32:08.767Z,24.30
2023-02-02T07:34:57.440Z,24.21
2023-02-02T07:37:53.538Z,24.30
2023-02-02T07:40:42.203Z,24.31
2023-02-02T07:43:30.932Z,24.37
2023-02-02T07:46:20.868Z,24.37
2023-02-02T07:49:09.574Z,24.30
2023-02-02T07:51:58.294Z,24.30
2023-02-02T07:54:48.792Z,24.43
2023-02-02T07:57:37.480Z,24.40
2023-02-02T08:00:26.630Z,24.46
2023-02-02T08:03:15.616Z,24.47
2023-02-02T08:06:11.862Z,24.45
2023-02-02T08:09:01.420Z,24.38
2023-02-02T08:11:51.431Z,24.47
2023-02-02T08:14:40.064Z,24.44
2023-02-02T08:17:28.700Z,24.46
2023-02-02T08:20:17.583Z,24.52
2023-02-02T08:23:09.196Z,24.49
2023-02-02T08:26:07.420Z,24.42
2023-02-02T08:28:58.696Z,24.33
2023-02-02T08:31:47.466Z,24.47
2023-02-02T08:34:36.957Z,24.50
2023-02-02T08:37:25.600Z,24.55
2023-02-02T08:40:14.873Z,24.42
2023-02-02T08:43:04.276Z,24.38
2023-02-02T08:46:01.093Z,24.44
2023-02-02T08:48:52.313Z,24.44
2023-02-02T08:51:41.714Z,24.39
2023-02-02T08:54:30.623Z,24.37
2023-02-02T08:57:19.440Z,24.19
2023-02-02T09:00:09.489Z,24.17
2023-02-02T09:02:59.800Z,24.09
2023-02-02T09:05:49.443Z,24.16
2023-02-02T09:08:38.840Z,24.00
2023-02-02T09:11:27.831Z,24.06
2023-02-02T09:14:16.926Z,24.15
2023-02-02T09:17:05.660Z,24.29
2023-02-02T09:19:55.569Z,24.35
2023-02-02T09:22:44.224Z,24.35
2023-02-02T09:25:32.923Z,24.35
2023-02-02T09:28:21.533Z,24.37
2023-02-02T09:31:10.607Z,24.36
2023-02-02T09:34:03.271Z,24.43
2023-02-02T09:36:54.320Z,24.35
2023-02-02T09:39:43.149Z,24.35
2023-02-02T09:42:44.781Z,24.30
2023-02-02T09:45:38.911Z,24.46
2023-02-02T09:48:33.430Z,24.37
2023-02-02T09:51:25.216Z,24.27
2023-02-02T09:54:20.155Z,24.36
2023-02-02T09:57:15.733Z,24.42
2023-02-02T10:00:05.758Z,24.25
2023-02-02T10:02:58.589Z,24.36
2023-02-02T10:05:52.200Z,24.30
2023-02-02T10:08:45.642Z,24.32
2023-02-02T10:11:38.866Z,24.07
2023-02-02T10:14:32.204Z,24.20
2023-02-02T10:17:33.346Z,24.39
2023-02-02T10:20:33.670Z,24.30
2023-02-02T10:23:27.153Z,24.27
2023-02-02T10:26:19.476Z,24.22
2023-02-02T10:29:16.983Z,24.23
2023-02-02T10:32:22.461Z,24.35
2023-02-02T10:35:29.813Z,24.26
2023-02-02T10:38:22.465Z,24.26
2023-02-02T10:41:19.885Z,24.25
2023-02-02T10:44:19.314Z,24.33
2023-02-02T10:47:11.529Z,24.34
2023-02-02T10:50:15.141Z,24.33
2023-02-02T10:53:08.444Z,24.31
2023-02-02T10:56:00.854Z,24.40
2023-02-02T10:58:55.107Z,24.43
2023-02-02T11:01:45.161Z,24.39
2023-02-02T11:04:51.518Z,24.46
2023-02-02T11:07:40.088Z,24.40
2023-02-02T11:10:28.745Z,24.37
2023-02-02T11:13:28.686Z,24.36
2023-02-02T11:16:22.863Z,24.34
2023-02-02T11:19:34.287Z,24.33
2023-02-02T11:22:30.899Z,24.29
2023-02-02T11:25:28.576Z,24.29
2023-02-02T11:28:21.670Z,24.30
2023-02-02T11:31:12.912Z,24.41
2023-02-02T11:34:13.093Z,24.38
2023-02-02T11:37:06.043Z,24.40
2023-02-02T11:39:54.655Z,24.29
2023-02-02T11:42:46.231Z,24.30
2023-02-02T11:45:37.404Z,24.33
2023-02-02T11:48:30.466Z,24.36
2023-02-02T11:51:24.383Z,24.32
2023-02-02T11:54:29.039Z,24.36
2023-02-02T11:57:20.585Z,24.32
2023-02-02T12:00:18.936Z,24.39
2023-02-02T12:03:24.876Z,24.30
2023-02-02T12:06:21.472Z,24.29
2023-02-02T12:09:13.927Z,24.30
2023-02-02T12:12:09.276Z,24.40
2023-02-02T12:15:04.776Z,24.34
2023-02-02T12:17:57.197Z,24.38
2023-02-02T12:20:51.138Z,24.40
2023-02-02T12:24:00.600Z,24.32
2023-02-02T12:26:52.103Z,24.29
2023-02-02T12:30:10.084Z,24.44
2023-02-02T12:33:13.815Z,24.29
2023-02-02T12:36:23.261Z,24.17
2023-02-02T12:39:22.698Z,24.04
2023-02-02T12:42:30.518Z,24.10
2023-02-02T12:45:36.797Z,24.23
2023-02-02T12:48:35.884Z,24.24
2023-02-02T12:51:44.498Z,24.30
2023-02-02T12:54:57.699Z,24.34
2023-02-02T12:57:55.452Z,24.36
2023-02-02T13:01:11.292Z,24.32
2023-02-02T13:04:12.878Z,24.34
2023-02-02T13:07:13.598Z,24.43
2023-02-02T13:10:08.734Z,24.45
2023-02-02T13:13:00.722Z,24.45
2023-02-02T13:15:52.585Z,24.43
2023-02-02T13:18:47.548Z,24.45
2023-02-02T13:21:37.432Z,24.34
2023-02-02T13:24:32.007Z,24.37
2023-02-02T13:27:22.102Z,24.42
2023-02-02T13:30:15.647Z,24.47
2023-02-02T13:33:07.055Z,24.46
2023-02-02T13:36:00.074Z,24.49
2023-02-02T13:38:48.706Z,24.59
2023-02-02T13:41:38.158Z,24.61
2023-02-02T13:44:32.128Z,24.47
2023-02-02T13:47:24.415Z,24.48
2023-02-02T13:50:16.828Z,24.39
2023-02-02T13:53:20.709Z,24.47
2023-02-02T13:56:25.705Z,24.54
2023-02-02T13:59:26.519Z,24.55
2023-02-02T14:02:23.761Z,24.52
2023-02-02T14:05:25.924Z,24.49
2023-02-02T14:08:20.727Z,24.44
2023-02-02T14:11:09.861Z,24.44
2023-02-02T14:14:18.041Z,24.50
2023-02-02T14:17:08.320Z,24.55
2023-02-02T14:19:57.838Z,24.47
2023-02-02T14:22:50.833Z,24.55
2023-02-02T14:26:07.118Z,24.47
2023-02-02T14:28:55.716Z,24.53
2023-02-02T14:31:54.250Z,24.36
2023-02-02T14:34:43.420Z,24.28
2023-02-02T14:37:40.593Z,24.20
2023-02-02T14:40:35.552Z,24.13
2023-02-02T14:43:45.138Z,24.10
2023-02-02T14:46:36.759Z,24.10
2023-02-02T14:49:27.614Z,24.11
2023-02-02T14:52:22.971Z,24.22
2023-02-02T14:55:19.801Z,24.29
2023-02-02T14:58:09.053Z,24.38
2023-02-02T15:01:08.375Z,24.40
2023-02-02T15:03:58.895Z,24.33
2023-02-02T15:06:48.000Z,24.45
2023-02-02T15:09:39.250Z,24.42
2023-02-02T15:12:34.447Z,24.43
2023-02-02T15:15:25.581Z,24.36
2023-02-02T15:18:18.703Z,24.25
2023-02-02T15:21:08.412Z,24.20
2023-02-02T15:23:57.609Z,23.96
2023-02-02T15:26:47.106Z,23.65
2023-02-02T15:29:41.535Z,23.54
2023-02-02T15:32:30.924Z,23.60
2023-02-02T15:35:23.298Z,23.63
2023-02-02T15:38:17.439Z,23.67
2023-02-02T15:41:07.605Z,23.73
2023-02-02T15:43:56.527Z,23.81
2023-02-02T15:46:45.260Z,23.82
2023-02-02T15:49:35.782Z,23.90
2023-02-02T15:52:28.349Z,24.04
2023-02-02T15:55:23.008Z,24.24
2023-02-02T15:58:30.036Z,24.24
2023-02-02T16:01:21.272Z,24.27
2023-02-02T16:04:16.616Z,24.26
2023-02-02T16:07:06.455Z,24.41
2023-02-02T16:09:56.514Z,24.44
2023-02-02T16:12:45.185Z,24.47
2023-02-02T16:15:33.811Z,24.54
2023-02-02T16:18:22.472Z,24.47
2023-02-02T16:21:17.007Z,24.46
2023-02-02T16:24:06.798Z,24.48
2023-02-02T16:27:00.015Z,24.51
2023-02-02T16:29:48.861Z,24.45
2023-02-02T16:32:39.741Z,24.44
2023-02-02T16:35:36.282Z,24.34
2023-02-02T16:38:26.522Z,24.26
2023-02-02T16:41:26.014Z,24.36
2023-02-02T16:44:38.898Z,24.44
2023-02-02T16:47:38.851Z,24.34
2023-02-02T16:50:31.949Z,24.39
2023-02-02T16:53:24.063Z,24.27
2023-02-02T16:56:23.232Z,24.43
2023-02-02T16:59:18.794Z,24.42
2023-02-02T17:02:21.236Z,24.46
2023-02-02T17:05:19.303Z,24.55
2023-02-02T17:08:08.365Z,24.50
2023-02-02T17:11:06.581Z,24.56
2023-02-02T17:13:56.393Z,24.72
2023-02-02T17:16:45.018Z,24.79
2023-02-02T17:19:35.197Z,24.90
2023-02-02T17:22:25.554Z,25.00
2023-02-02T17:25:17.040Z,25.03
2023-02-02T17:28:10.838Z,25.10
2023-02-02T17:31:01.457Z,25.17
2023-02-02T17:33:50.214Z,25.27
2023-02-02T17:36:40.367Z,25.22
2023-02-02T17:39:29.053Z,25.06
2023-02-02T17:42:23.277Z,25.11
2023-02-02T17:45:21.135Z,25.19
2023-02-02T17:48:12.707Z,25.10
2023-02-02T17:51:11.237Z,25.29
2023-02-02T17:54:01.577Z,25.34
2023-02-02T17:56:51.855Z,25.46
2023-02-02T17:59:40.586Z,25.51
2023-02-02T18:02:30.537Z,25.50
2023-02-02T18:05:21.481Z,25.55
2023-02-02T18:08:11.701Z,25.57
2023-02-02T18:11:02.333Z,25.58
2023-02-02T18:13:51.072Z,25.57
2023-02-02T18:16:40.276Z,25.48
2023-02-02T18:19:31.379Z,25.51
2023-02-02T18:22:22.756Z,25.55
2023-02-02T18:25:11.880Z,25.63
2023-02-02T18:28:07.605Z,25.48
2023-02-02T18:30:56.662Z,25.53
2023-02-02T18:33:45.987Z,25.55
2023-02-02T18:36:36.300Z,25.54
2023-02-02T18:39:25.081Z,25.66
2023-02-02T18:42:14.602Z,25.81
2023-02-02T18:45:06.213Z,25.75
2023-02-02T18:47:55.380Z,25.89
2023-02-02T18:50:44.020Z,25.67
2023-02-02T18:53:32.880Z,25.68
2023-02-02T18:56:21.490Z,25.72
2023-02-02T18:59:10.305Z,25.70
2023-02-02T19:02:00.391Z,25.73
2023-02-02T19:05:02.892Z,25.73
2023-02-02T19:07:58.181Z,25.73
2023-02-02T19:10:47.365Z,25.73
2023-02-02T19:13:36.102Z,25.70
2023-02-02T19:16:27.255Z,25.74
2023-02-02T19:19:24.886Z,25.52
2023-02-02T19:22:20.761Z,25.38
2023-02-02T19:25:13.108Z,25.32
2023-02-02T19:28:04.805Z,25.54
2023-02-02T19:30:54.624Z,25.36
2023-02-02T19:33:45.300Z,25.46
2023-02-02T19:36:38.224Z,25.50
2023-02-02T19:39:30.737Z,25.35
2023-02-02T19:42:19.480Z,25.35
2023-02-02T19:45:22.344Z,25.46
2023-02-02T19:48:16.858Z,25.64
2023-02-02T19:51:27.988Z,25.66
2023-02-02T19:54:26.422Z,25.69
2023-02-02T19:57:20.717Z,25.72
2023-02-02T20:00:20.102Z,25.97
2023-02-02T20:03:12.578Z,25.95
2023-02-02T20:06:01.313Z,25.86
2023-02-02T20:08:49.931Z,25.88
2023-02-02T20:11:41.430Z,25.82
2023-02-02T20:14:32.690Z,25.82
2023-02-02T20:17:26.536Z,25.78
2023-02-02T20:20:23.907Z,25.81
2023-02-02T20:23:24.539Z,25.84
2023-02-02T20:26:22.888Z,25.79
2023-02-02T20:29:22.301Z,25.77
2023-02-02T20:32:18.807Z,25.74
2023-02-02T20:35:22.680Z,25.75
2023-02-02T20:38:19.911Z,25.71
2023-02-02T20:41:08.611Z,25.51
2023-02-02T20:43:57.152Z,25.59
2023-02-02T20:46:47.213Z,25.39
2023-02-02T20:49:36.183Z,25.57
2023-02-02T20:52:25.307Z,25.60
2023-02-02T20:55:14.200Z,25.67
2023-02-02T20:58:03.191Z,25.69
2023-02-02T21:00:51.976Z,25.69
2023-02-02T21:03:42.133Z,25.68
2023-02-02T21:06:30.725Z,25.69
2023-02-02T21:09:19.411Z,25.69
2023-02-02T21:12:08.160Z,25.68
2023-02-02T21:14:56.847Z,25.71
2023-02-02T21:17:45.519Z,25.64
2023-02-02T21:20:35.462Z,25.71
2023-02-02T21:23:24.112Z,25.74
2023-02-02T21:26:12.739Z,25.69
2023-02-02T21:29:01.458Z,25.67
2023-02-02T21:31:50.071Z,25.70
2023-02-02T21:34:42.029Z,25.62
2023-02-02T21:37:32.281Z,25.58
2023-02-02T21:40:27.571Z,25.18
2023-02-02T21:43:18.358Z,24.91
2023-02-02T21:46:07.078Z,24.69
2023-02-02T21:48:55.802Z,24.54
2023-02-02T21:51:44.395Z,24.62
2023-02-02T21:54:38.594Z,24.55
2023-02-02T21:57:36.132Z,24.55
2023-02-02T22:00:33.617Z,24.50
2023-02-02T22:03:32.542Z,24.37
2023-02-02T22:06:26.937Z,24.38
2023-02-02T22:09:20.241Z,24.38
2023-02-02T22:12:18.492Z,24.28
2023-02-02T22:15:18.172Z,24.34
2023-02-02T22:18:14.516Z,24.29
2023-02-02T22:21:03.072Z,24.28
2023-02-02T22:23:51.758Z,24.26
2023-02-02T22:26:40.312Z,24.19
2023-02-02T22:29:31.166Z,24.12
2023-02-02T22:32:19.699Z,24.10
2023-02-02T22:35:12.611Z,24.08
2023-02-02T22:38:01.190Z,24.06
2023-02-02T22:40:51.303Z,24.07
2023-02-02T22:43:40.023Z,24.03
2023-02-02T22:46:30.094Z,24.01
2023-02-02T22:49:18.750Z,23.99
2023-02-02T22:52:07.508Z,23.97
2023-02-02T22:54:56.058Z,23.97
2023-02-02T22:57:44.800Z,24.05
2023-02-02T23:00:34.485Z,23.97
2023-02-02T23:03:24.685Z,23.97
2023-02-02T23:06:13.325Z,24.06
2023-02-02T23:09:01.897Z,24.04
2023-02-02T23:11:50.493Z,24.01
2023-02-02T23:14:39.128Z,24.04
2023-02-02T23:17:27.757Z,24.02
2023-02-02T23:20:18.715Z,24.02
2023-02-02T23:23:07.338Z,24.02
2023-02-02T23:25:55.905Z,24.02
2023-02-02T23:28:44.495Z,24.07
2023-02-02T23:31:33.199Z,24.11
2023-02-02T23:34:21.955Z,24.08
2023-02-02T23:37:14.409Z,24.11
2023-02-02T23:40:03.014Z,24.07
2023-02-02T23:42:51.627Z,24.15
2023-02-02T23:45:40.385Z,24.10
2023-02-02T23:48:29.120Z,24.08
2023-02-02T23:51:17.894Z,24.08
2023-02-02T23:54:08.226Z,24.06
2023-02-02T23:56:57.201Z,24.03
2023-02-02T23:59:45.920Z,24.01
